createdAt,value
2018-05-16T00:01:29.098Z,10.00
2018-05-16T00:04:32.343Z,9.99
2018-05-16T00:07:35.596Z,9.93
2018-05-16T00:10:38.890Z,9.83
2018-05-16T00:13:42.150Z,9.87
2018-05-16T00:16:46.171Z,9.89
2018-05-16T00:19:50.864Z,9.92
2018-05-16T00:22:54.900Z,9.81
2018-05-16T00:25:58.185Z,9.88
2018-05-16T00:29:01.436Z,9.90
2018-05-16T00:32:05.457Z,9.92
2018-05-16T00:35:09.471Z,9.92
2018-05-16T00:38:13.533Z,9.89
2018-05-16T00:41:16.815Z,9.88
2018-05-16T00:44:20.058Z,9.88
2018-05-16T00:47:23.320Z,9.88
2018-05-16T00:50:26.566Z,9.88
2018-05-16T00:53:29.825Z,9.84
2018-05-16T00:56:33.126Z,9.85
2018-05-16T00:59:36.354Z,9.84
2018-05-16T01:02:40.381Z,9.89
2018-05-16T01:05:43.665Z,9.88
2018-05-16T01:08:46.919Z,9.86
2018-05-16T01:11:50.174Z,9.89
2018-05-16T01:14:53.422Z,9.85
2018-05-16T01:17:56.669Z,9.87
2018-05-16T01:20:59.914Z,9.86
2018-05-16T01:24:03.245Z,9.88
2018-05-16T01:27:06.421Z,9.87
2018-05-16T01:30:10.478Z,9.91
2018-05-16T01:33:14.542Z,9.89
2018-05-16T01:36:17.805Z,9.88
2018-05-16T01:39:21.052Z,9.88
2018-05-16T01:42:24.306Z,9.94
2018-05-16T01:45:27.559Z,9.96
2018-05-16T01:48:31.595Z,9.97
2018-05-16T01:51:34.849Z,10.00
2018-05-16T01:54:38.158Z,10.02
2018-05-16T01:57:41.414Z,10.01
2018-05-16T02:00:44.675Z,10.03
2018-05-16T02:03:48.699Z,10.05
2018-05-16T02:06:52.722Z,10.13
2018-05-16T02:09:56.752Z,10.10
2018-05-16T02:13:00.782Z,10.14
2018-05-16T02:16:04.044Z,10.16
2018-05-16T02:19:07.293Z,10.12
2018-05-16T02:22:10.561Z,10.12
2018-05-16T02:25:14.583Z,10.14
2018-05-16T02:28:18.704Z,10.12
2018-05-16T02:31:22.748Z,10.09
2018-05-16T02:34:26.023Z,10.12
2018-05-16T02:37:30.254Z,10.18
2018-05-16T02:40:34.181Z,10.18
2018-05-16T02:43:38.213Z,10.13
2018-05-16T02:46:41.483Z,10.15
2018-05-16T02:49:45.511Z,10.24
2018-05-16T02:52:49.571Z,10.28
2018-05-16T02:55:52.895Z,10.26
2018-05-16T02:58:56.150Z,10.25
2018-05-16T03:01:59.431Z,10.26
2018-05-16T03:05:02.689Z,10.17
2018-05-16T03:08:05.990Z,10.20
2018-05-16T03:11:09.278Z,10.13
2018-05-16T03:14:12.529Z,10.15
2018-05-16T03:17:15.797Z,10.14
2018-05-16T03:20:19.081Z,10.17
2018-05-16T03:23:22.368Z,10.26
2018-05-16T03:26:26.396Z,10.23
2018-05-16T03:29:30.424Z,10.20
2018-05-16T03:32:34.451Z,10.35
2018-05-16T03:35:38.497Z,10.25
2018-05-16T03:38:41.876Z,10.28
2018-05-16T03:41:45.907Z,10.17
2018-05-16T03:44:49.175Z,10.24
2018-05-16T03:47:52.460Z,10.23
2018-05-16T03:50:55.738Z,10.29
2018-05-16T03:53:59.400Z,10.34
2018-05-16T03:57:02.778Z,10.31
2018-05-16T04:00:24.059Z,10.35
2018-05-16T04:03:46.526Z,10.39
2018-05-16T04:06:49.872Z,10.49
2018-05-16T04:09:53.215Z,10.56
2018-05-16T04:12:56.483Z,10.46
2018-05-16T04:16:00.674Z,10.48
2018-05-16T04:19:04.707Z,10.49
2018-05-16T04:22:08.008Z,10.59
2018-05-16T04:25:12.037Z,10.62
2018-05-16T04:28:15.309Z,10.63
2018-05-16T04:31:33.159Z,10.62
2018-05-16T04:34:37.206Z,10.57
2018-05-16T04:37:40.643Z,10.64
2018-05-16T04:40:43.937Z,10.64
2018-05-16T04:43:47.262Z,10.73
2018-05-16T04:46:50.525Z,10.81
2018-05-16T04:49:54.556Z,10.87
2018-05-16T04:52:57.915Z,10.84
2018-05-16T04:56:01.109Z,10.76
2018-05-16T04:59:04.709Z,10.77
2018-05-16T05:02:08.007Z,10.72
2018-05-16T05:05:11.266Z,10.72
2018-05-16T05:08:14.542Z,10.88
2018-05-16T05:11:17.838Z,10.94
2018-05-16T05:14:21.127Z,10.96
2018-05-16T05:17:24.421Z,11.07
2018-05-16T05:20:27.690Z,11.08
2018-05-16T05:23:31.097Z,11.07
2018-05-16T05:26:34.354Z,10.99
2018-05-16T05:29:37.624Z,11.08
2018-05-16T05:32:40.994Z,11.14
2018-05-16T05:35:44.284Z,11.16
2018-05-16T05:38:47.589Z,11.15
2018-05-16T05:41:51.036Z,11.27
2018-05-16T05:44:54.955Z,11.25
2018-05-16T05:47:58.504Z,11.26
2018-05-16T05:51:02.103Z,11.37
2018-05-16T05:54:05.596Z,11.35
2018-05-16T05:57:09.108Z,11.20
2018-05-16T06:00:12.468Z,11.22
2018-05-16T06:03:15.688Z,11.17
2018-05-16T06:06:19.015Z,11.12
2018-05-16T06:09:23.103Z,11.14
2018-05-16T06:12:26.399Z,10.94
2018-05-16T06:15:29.679Z,10.92
2018-05-16T06:18:32.942Z,10.94
2018-05-16T06:21:36.211Z,10.78
2018-05-16T06:24:39.489Z,10.97
2018-05-16T06:27:42.754Z,10.96
2018-05-16T06:30:46.024Z,11.08
2018-05-16T06:33:49.288Z,11.11
2018-05-16T06:36:53.317Z,11.11
2018-05-16T06:39:57.345Z,11.03
2018-05-16T06:43:01.382Z,11.14
2018-05-16T06:46:05.500Z,11.24
2018-05-16T06:49:09.526Z,11.51
2018-05-16T06:52:13.592Z,11.79
2018-05-16T06:55:16.850Z,11.71
2018-05-16T06:58:20.131Z,11.85
2018-05-16T07:01:23.409Z,11.77
2018-05-16T07:04:26.677Z,11.97
2018-05-16T07:07:30.704Z,11.85
2018-05-16T07:10:33.970Z,11.83
2018-05-16T07:13:37.255Z,11.92
2018-05-16T07:16:40.511Z,12.05
2018-05-16T07:19:44.542Z,12.15
2018-05-16T07:22:47.924Z,12.28
2018-05-16T07:25:51.894Z,12.28
2018-05-16T07:28:55.396Z,12.41
2018-05-16T07:31:58.724Z,12.40
2018-05-16T07:35:02.001Z,12.55
2018-05-16T07:38:06.022Z,12.70
2018-05-16T07:41:10.105Z,12.49
2018-05-16T07:44:14.087Z,12.52
2018-05-16T07:47:18.112Z,12.98
2018-05-16T07:50:22.159Z,13.04
2018-05-16T07:53:25.451Z,12.96
2018-05-16T07:56:29.556Z,13.21
2018-05-16T07:59:32.809Z,13.13
2018-05-16T08:02:36.063Z,13.12
2018-05-16T08:05:39.355Z,13.06
2018-05-16T08:08:42.611Z,13.19
2018-05-16T08:11:46.649Z,13.04
2018-05-16T08:14:50.733Z,12.94
2018-05-16T08:17:54.007Z,12.67
2018-05-16T08:20:57.324Z,12.76
2018-05-16T08:24:00.565Z,12.80
2018-05-16T08:27:04.791Z,13.03
2018-05-16T08:30:08.061Z,12.87
2018-05-16T08:33:11.415Z,12.83
2018-05-16T08:36:14.677Z,13.05
2018-05-16T08:39:17.933Z,13.18
2018-05-16T08:42:21.965Z,13.17
2018-05-16T08:45:26.052Z,13.40
2018-05-16T08:48:29.290Z,13.53
2018-05-16T08:51:32.563Z,13.44
2018-05-16T08:54:35.856Z,13.69
2018-05-16T08:57:39.114Z,13.54
2018-05-16T09:00:42.372Z,13.42
2018-05-16T09:03:45.641Z,13.54
2018-05-16T09:06:49.678Z,13.87
2018-05-16T09:09:52.942Z,13.69
2018-05-16T09:12:56.205Z,13.77
2018-05-16T09:15:59.480Z,13.88
2018-05-16T09:19:02.748Z,13.92
2018-05-16T09:22:06.015Z,13.50
2018-05-16T09:25:09.312Z,13.28
2018-05-16T09:28:14.078Z,12.74
2018-05-16T09:31:17.707Z,12.28
2018-05-16T09:34:20.960Z,12.24
2018-05-16T09:37:24.288Z,12.00
2018-05-16T09:40:28.316Z,12.15
2018-05-16T09:43:31.837Z,12.00
2018-05-16T09:46:35.878Z,12.26
2018-05-16T09:49:39.136Z,12.35
2018-05-16T09:52:42.493Z,12.57
2018-05-16T09:55:45.786Z,12.60
2018-05-16T09:58:49.822Z,12.82
2018-05-16T10:01:53.083Z,13.03
2018-05-16T10:04:56.363Z,13.26
2018-05-16T10:07:59.639Z,12.99
2018-05-16T10:11:03.666Z,13.00
2018-05-16T10:14:07.686Z,13.30
2018-05-16T10:17:11.715Z,12.74
2018-05-16T10:20:15.833Z,12.89
2018-05-16T10:23:19.765Z,12.55
2018-05-16T10:26:23.797Z,12.82
2018-05-16T10:29:27.049Z,12.70
2018-05-16T10:32:30.346Z,12.64
2018-05-16T10:35:33.615Z,12.49
2018-05-16T10:38:36.887Z,12.52
2018-05-16T10:41:40.156Z,12.64
2018-05-16T10:44:43.418Z,12.57
2018-05-16T10:47:47.458Z,12.87
2018-05-16T10:50:50.714Z,13.23
2018-05-16T10:53:53.969Z,13.42
2018-05-16T10:56:57.235Z,13.89
2018-05-16T11:00:00.502Z,13.91
2018-05-16T11:03:03.761Z,14.03
2018-05-16T11:06:07.806Z,13.82
2018-05-16T11:09:11.829Z,13.45
2018-05-16T11:12:15.861Z,13.60
2018-05-16T11:15:19.897Z,13.36
2018-05-16T11:18:23.929Z,14.23
2018-05-16T11:21:28.223Z,14.14
2018-05-16T11:24:31.404Z,12.62
2018-05-16T11:27:35.031Z,13.19
2018-05-16T11:30:39.147Z,12.68
2018-05-16T11:33:42.596Z,12.03
2018-05-16T11:36:45.873Z,12.26
2018-05-16T11:39:49.145Z,11.88
2018-05-16T11:42:54.404Z,11.91
2018-05-16T11:45:57.684Z,12.43
2018-05-16T11:49:02.447Z,12.82
2018-05-16T11:52:05.756Z,13.15
2018-05-16T11:55:09.032Z,13.18
2018-05-16T11:58:12.313Z,13.40
2018-05-16T12:01:16.345Z,13.43
2018-05-16T12:04:19.621Z,13.66
2018-05-16T12:07:22.888Z,13.83
2018-05-16T12:10:26.156Z,14.07
2018-05-16T12:13:29.444Z,14.28
2018-05-16T12:20:07.312Z,13.99
2018-05-16T12:23:11.366Z,14.12
2018-05-16T12:26:15.681Z,14.21
2018-05-16T12:29:19.774Z,14.28
2018-05-16T12:32:22.926Z,14.16
2018-05-16T12:35:26.221Z,13.99
2018-05-16T12:38:29.650Z,14.39
2018-05-16T12:41:32.910Z,14.00
2018-05-16T12:44:36.162Z,14.42
2018-05-16T12:47:39.451Z,14.56
2018-05-16T12:50:42.710Z,14.49
2018-05-16T12:53:46.001Z,14.38
2018-05-16T12:56:49.286Z,14.35
2018-05-16T12:59:52.535Z,14.55
2018-05-16T13:02:55.790Z,14.39
2018-05-16T13:05:59.171Z,14.69
2018-05-16T13:09:03.230Z,14.39
2018-05-16T13:12:06.522Z,13.91
2018-05-16T13:15:09.791Z,13.86
2018-05-16T13:18:13.191Z,13.64
2018-05-16T13:21:16.420Z,13.33
2018-05-16T13:24:20.468Z,13.54
2018-05-16T13:27:23.767Z,13.72
2018-05-16T13:30:27.030Z,13.71
2018-05-16T13:33:30.431Z,13.79
2018-05-16T13:36:33.776Z,14.15
2018-05-16T13:39:37.807Z,13.69
2018-05-16T13:42:41.913Z,13.70
2018-05-16T13:45:45.206Z,13.74
2018-05-16T13:48:48.463Z,13.22
2018-05-16T13:51:51.715Z,13.85
2018-05-16T13:54:54.994Z,13.06
2018-05-16T13:57:58.293Z,12.98
2018-05-16T14:01:03.272Z,13.11
2018-05-16T14:04:08.269Z,13.13
2018-05-16T14:07:11.533Z,13.41
2018-05-16T14:10:14.818Z,13.77
2018-05-16T14:13:18.069Z,13.67
2018-05-16T14:16:21.330Z,13.88
2018-05-16T14:19:24.619Z,13.75
2018-05-16T14:22:27.925Z,13.93
2018-05-16T14:25:33.362Z,14.17
2018-05-16T14:28:37.398Z,14.35
2018-05-16T14:31:42.889Z,14.09
2018-05-16T14:34:46.432Z,13.68
2018-05-16T14:37:49.753Z,13.60
2018-05-16T14:40:53.011Z,13.70
2018-05-16T14:43:57.030Z,13.40
2018-05-16T14:47:00.333Z,13.39
2018-05-16T14:50:04.671Z,13.27
2018-05-16T14:53:08.014Z,13.16
2018-05-16T14:56:12.131Z,13.74
2018-05-16T14:59:15.389Z,13.97
2018-05-16T15:02:19.495Z,14.17
2018-05-16T15:05:22.747Z,13.98
2018-05-16T15:08:26.043Z,14.58
2018-05-16T15:11:29.347Z,13.97
2018-05-16T15:14:32.678Z,14.09
2018-05-16T15:17:35.943Z,13.67
2018-05-16T15:20:39.197Z,13.64
2018-05-16T15:23:42.453Z,13.85
2018-05-16T15:26:45.879Z,13.99
2018-05-16T15:29:50.000Z,13.89
2018-05-16T15:32:53.343Z,13.22
2018-05-16T15:35:56.592Z,13.19
2018-05-16T15:38:59.986Z,13.20
2018-05-16T15:42:03.405Z,13.29
2018-05-16T15:45:06.679Z,13.21
2018-05-16T15:48:10.761Z,13.12
2018-05-16T15:51:14.129Z,13.52
2018-05-16T15:54:17.465Z,14.11
2018-05-16T15:57:20.790Z,14.21
2018-05-16T16:00:24.107Z,13.80
2018-05-16T16:03:28.284Z,14.22
2018-05-16T16:06:31.581Z,13.86
2018-05-16T16:09:35.301Z,14.02
2018-05-16T16:12:38.582Z,14.25
2018-05-16T16:15:41.844Z,14.37
2018-05-16T16:18:45.149Z,14.10
2018-05-16T16:21:48.914Z,14.04
2018-05-16T16:24:52.951Z,13.63
2018-05-16T16:27:56.245Z,13.61
2018-05-16T16:31:00.403Z,13.57
2018-05-16T16:34:16.574Z,13.32
2018-05-16T16:37:41.726Z,13.06
2018-05-16T16:40:56.655Z,13.08
2018-05-16T16:44:03.883Z,12.96
2018-05-16T16:47:07.485Z,12.68
2018-05-16T16:53:45.657Z,12.48
2018-05-16T16:56:48.996Z,12.51
2018-05-16T16:59:53.248Z,12.38
2018-05-16T17:02:56.510Z,12.08
2018-05-16T17:06:00.652Z,11.58
2018-05-16T17:09:03.919Z,11.24
2018-05-16T17:12:07.197Z,10.94
2018-05-16T17:15:10.476Z,10.99
2018-05-16T17:18:14.621Z,10.94
2018-05-16T17:21:17.906Z,10.82
2018-05-16T17:24:22.018Z,10.95
2018-05-16T17:27:25.335Z,11.11
2018-05-16T17:30:29.419Z,11.22
2018-05-16T17:33:33.250Z,11.23
2018-05-16T17:36:36.506Z,11.20
2018-05-16T17:39:39.807Z,11.27
2018-05-16T17:42:43.077Z,11.14
2018-05-16T17:45:47.119Z,11.20
2018-05-16T17:48:50.383Z,11.08
2018-05-16T17:51:54.739Z,11.05
2018-05-16T17:54:58.177Z,11.16
2018-05-16T17:58:02.428Z,11.14
2018-05-16T18:01:06.069Z,11.15
2018-05-16T18:04:10.161Z,11.12
2018-05-16T18:07:13.457Z,11.15
2018-05-16T18:10:16.781Z,11.13
2018-05-16T18:17:27.919Z,11.12
2018-05-16T18:20:31.938Z,11.08
2018-05-16T18:23:35.978Z,11.18
2018-05-16T18:26:39.247Z,10.95
2018-05-16T18:29:42.614Z,11.05
2018-05-16T18:32:45.875Z,10.98
2018-05-16T18:35:49.282Z,11.06
2018-05-16T18:38:53.323Z,11.13
2018-05-16T18:41:57.357Z,11.13
2018-05-16T18:45:00.608Z,11.15
2018-05-16T18:48:03.862Z,11.13
2018-05-16T18:51:07.130Z,11.11
2018-05-16T18:54:11.169Z,11.12
2018-05-16T18:57:14.438Z,11.02
2018-05-16T19:00:17.698Z,10.96
2018-05-16T19:03:21.004Z,11.00
2018-05-16T19:06:24.864Z,11.01
2018-05-16T19:09:28.145Z,11.08
2018-05-16T19:12:31.403Z,11.04
2018-05-16T19:15:34.662Z,11.08
2018-05-16T19:18:37.917Z,10.94
2018-05-16T19:21:41.191Z,10.94
2018-05-16T19:24:45.036Z,10.89
2018-05-16T19:27:48.321Z,10.90
2018-05-16T19:30:51.591Z,10.81
2018-05-16T19:33:57.084Z,10.84
2018-05-16T19:37:01.206Z,10.74
2018-05-16T19:40:05.238Z,10.79
2018-05-16T19:43:11.006Z,10.72
2018-05-16T19:46:14.957Z,10.68
2018-05-16T19:49:18.839Z,10.66
2018-05-16T19:52:24.170Z,10.60
2018-05-16T19:55:27.453Z,10.65
2018-05-16T19:58:32.323Z,10.60
2018-05-16T20:01:37.256Z,10.66
2018-05-16T20:04:41.813Z,10.60
2018-05-16T20:07:45.909Z,10.60
2018-05-16T20:10:49.789Z,10.59
2018-05-16T20:13:53.082Z,10.59
2018-05-16T20:16:56.431Z,10.62
2018-05-16T20:20:00.501Z,10.66
2018-05-16T20:23:03.761Z,10.59
2018-05-16T20:26:07.078Z,10.62
2018-05-16T20:29:11.090Z,10.70
2018-05-16T20:32:15.217Z,10.65
2018-05-16T20:35:19.253Z,10.66
2018-05-16T20:38:23.317Z,10.61
2018-05-16T20:41:47.716Z,10.63
2018-05-16T20:44:52.832Z,10.75
2018-05-16T20:47:56.906Z,10.72
2018-05-16T20:51:00.175Z,10.68
2018-05-16T20:54:04.197Z,10.68
2018-05-16T20:57:07.501Z,10.68
2018-05-16T21:00:11.565Z,10.66
2018-05-16T21:03:14.843Z,10.67
2018-05-16T21:06:19.499Z,10.68
2018-05-16T21:09:22.748Z,10.70
2018-05-16T21:12:26.089Z,10.72
2018-05-16T21:15:30.132Z,10.78
2018-05-16T21:18:34.253Z,10.76
2018-05-16T21:21:39.899Z,10.73
2018-05-16T21:24:43.152Z,10.77
2018-05-16T21:27:46.538Z,10.80
2018-05-16T21:30:50.569Z,10.86
2018-05-16T21:33:54.647Z,10.87
2018-05-16T21:36:57.916Z,10.90
2018-05-16T21:40:01.190Z,10.85
2018-05-16T21:43:04.459Z,10.79
2018-05-16T21:46:07.728Z,10.79
2018-05-16T21:49:11.762Z,10.81
2018-05-16T21:52:15.863Z,10.80
2018-05-16T21:55:19.237Z,10.79
2018-05-16T21:58:22.534Z,10.77
2018-05-16T22:01:25.851Z,10.81
2018-05-16T22:04:29.118Z,10.63
2018-05-16T22:07:32.570Z,10.56
2018-05-16T22:10:36.777Z,10.54
2018-05-16T22:13:41.714Z,10.50
2018-05-16T22:16:45.861Z,10.48
2018-05-16T22:19:49.112Z,10.48
2018-05-16T22:22:52.421Z,10.52
2018-05-16T22:25:55.754Z,10.54
2018-05-16T22:28:59.036Z,10.52
2018-05-16T22:32:08.498Z,10.51
2018-05-16T22:35:17.453Z,10.41
2018-05-16T22:38:26.858Z,10.38
2018-05-16T22:41:35.777Z,10.32
2018-05-16T22:44:43.222Z,10.30
2018-05-16T22:47:46.481Z,10.31
2018-05-16T22:50:50.534Z,10.26
2018-05-16T22:53:53.781Z,10.24
2018-05-16T22:56:57.041Z,10.24
2018-05-16T23:00:00.340Z,10.25
2018-05-16T23:03:04.450Z,10.23
2018-05-16T23:06:07.669Z,10.26
2018-05-16T23:09:11.684Z,10.25
2018-05-16T23:12:15.714Z,10.27
2018-05-16T23:15:19.738Z,10.27
2018-05-16T23:18:23.760Z,10.34
2018-05-16T23:21:48.120Z,10.38
2018-05-16T23:24:52.897Z,10.44
2018-05-16T23:27:56.922Z,10.41
2018-05-16T23:31:01.002Z,10.49
2018-05-16T23:34:04.263Z,10.49
2018-05-16T23:37:07.619Z,10.60
2018-05-16T23:40:10.894Z,10.58
2018-05-16T23:43:14.880Z,10.57
2018-05-16T23:46:18.182Z,10.61
2018-05-16T23:49:21.446Z,10.61
2018-05-16T23:52:24.722Z,10.66
2018-05-16T23:55:27.994Z,10.71
2018-05-16T23:58:31.262Z,10.77
